createdAt,value
2022-09-10T00:00:12.417Z,1.60
2022-09-10T00:05:14.310Z,1.58
2022-09-10T00:10:16.386Z,1.45
2022-09-10T00:15:18.727Z,1.10
2022-09-10T00:20:20.367Z,1.40
2022-09-10T00:25:22.023Z,1.40
2022-09-10T00:30:23.659Z,1.40
2022-09-10T00:35:25.309Z,1.50
2022-09-10T00:40:26.998Z,1.50
2022-09-10T00:45:31.148Z,1.40
2022-09-10T00:50:38.243Z,1.63
2022-09-10T00:55:42.886Z,1.52
2022-09-10T01:00:44.715Z,1.40
2022-09-10T01:05:48.784Z,1.30
2022-09-10T01:11:08.636Z,1.60
2022-09-10T01:16:47.033Z,1.20
2022-09-10T01:22:31.899Z,1.65
2022-09-10T01:27:42.514Z,1.33
2022-09-10T01:33:04.226Z,1.05
2022-09-10T01:38:15.502Z,1.25
2022-09-10T01:43:17.135Z,1.35
2022-09-10T01:48:42.931Z,1.23
2022-09-10T01:53:44.513Z,1.60
2022-09-10T01:58:46.797Z,1.25
2022-09-10T02:03:54.909Z,1.42
2022-09-10T02:08:59.423Z,1.25
2022-09-10T02:14:01.054Z,1.20
2022-09-10T02:19:04.140Z,1.33
2022-09-10T02:24:09.951Z,1.17
2022-09-10T02:29:14.831Z,1.30
2022-09-10T02:34:16.442Z,1.20
2022-09-10T02:39:18.077Z,1.40
2022-09-10T02:44:19.697Z,1.30
2022-09-10T02:49:21.577Z,1.40
2022-09-10T02:54:23.204Z,1.35
2022-09-10T02:59:25.281Z,1.58
2022-09-10T03:04:26.950Z,1.20
2022-09-10T03:09:28.901Z,1.33
2022-09-10T03:14:31.096Z,1.67
2022-09-10T03:19:32.752Z,1.20
2022-09-10T03:24:34.407Z,1.35
2022-09-10T03:29:36.458Z,1.40
2022-09-10T03:34:39.167Z,1.25
2022-09-10T03:39:40.991Z,1.30
2022-09-10T03:44:42.720Z,1.10
2022-09-10T03:49:44.365Z,1.52
2022-09-10T03:54:45.969Z,1.42
2022-09-10T03:59:47.865Z,1.45
2022-09-10T04:04:49.480Z,1.40
2022-09-10T04:09:51.836Z,1.50
2022-09-10T04:14:53.722Z,1.10
2022-09-10T04:19:55.381Z,1.33
2022-09-10T04:24:57.090Z,1.50
2022-09-10T04:29:58.737Z,1.95
2022-09-10T04:35:02.252Z,1.38
2022-09-10T04:40:05.259Z,1.50
2022-09-10T04:45:07.703Z,1.50
2022-09-10T04:50:09.811Z,1.73
2022-09-10T04:55:11.952Z,1.30
2022-09-10T05:00:14.462Z,1.50
2022-09-10T05:05:16.176Z,1.50
2022-09-10T05:10:18.160Z,1.65
2022-09-10T05:15:20.043Z,2.28
2022-09-10T05:20:22.033Z,1.35
2022-09-10T05:25:24.478Z,1.50
2022-09-10T05:30:26.121Z,1.25
2022-09-10T05:35:29.322Z,1.75
2022-09-10T05:40:30.997Z,1.27
2022-09-10T05:45:35.758Z,1.30
2022-09-10T05:50:38.446Z,1.70
2022-09-10T05:55:40.488Z,1.17
2022-09-10T06:00:45.580Z,0.90
2022-09-10T06:05:50.404Z,1.20
2022-09-10T06:11:12.014Z,1.17
2022-09-10T06:16:14.743Z,1.40
2022-09-10T06:21:19.323Z,1.50
2022-09-10T06:26:21.326Z,1.40
2022-09-10T06:31:26.825Z,1.23
2022-09-10T06:36:28.793Z,1.20
2022-09-10T06:41:30.980Z,1.33
2022-09-10T06:47:10.685Z,1.38
2022-09-10T06:51:56.288Z,0.95
2022-09-10T06:56:58.112Z,1.00
2022-09-10T07:02:00.539Z,1.00
2022-09-10T07:07:02.485Z,1.15
2022-09-10T07:12:04.846Z,0.77
2022-09-10T07:17:06.477Z,0.95
2022-09-10T07:22:08.116Z,1.00
2022-09-10T07:27:11.047Z,1.55
2022-09-10T07:32:13.746Z,1.00
2022-09-10T07:37:18.325Z,0.73
2022-09-10T07:42:20.023Z,0.90
2022-09-10T07:47:21.641Z,1.00
2022-09-10T07:52:23.363Z,1.02
2022-09-10T07:57:25.013Z,0.90
2022-09-10T08:02:27.445Z,1.02
2022-09-10T08:07:29.321Z,1.00
2022-09-10T08:12:33.650Z,1.75
2022-09-10T08:17:36.771Z,0.98
2022-09-10T08:22:38.437Z,0.93
2022-09-10T08:27:41.037Z,1.15
2022-09-10T08:32:42.961Z,1.10
2022-09-10T08:37:44.787Z,0.90
2022-09-10T08:42:50.143Z,1.00
2022-09-10T08:48:16.466Z,0.88
2022-09-10T08:53:42.833Z,1.13
2022-09-10T08:58:59.923Z,1.10
2022-09-10T09:04:09.533Z,1.58
2022-09-10T09:09:15.680Z,1.20
2022-09-10T09:14:36.120Z,0.88
2022-09-10T09:20:02.414Z,0.90
2022-09-10T09:25:27.384Z,0.93
2022-09-10T09:30:37.603Z,0.90
2022-09-10T09:35:57.679Z,1.00
2022-09-10T09:41:07.202Z,0.82
2022-09-10T09:46:15.882Z,1.10
2022-09-10T09:51:22.074Z,0.98
2022-09-10T09:56:29.297Z,1.05
2022-09-10T10:01:33.328Z,0.90
2022-09-10T10:06:47.325Z,1.02
2022-09-10T10:11:53.663Z,0.90
2022-09-10T10:17:00.439Z,0.90
2022-09-10T10:22:14.798Z,0.80
2022-09-10T10:27:41.404Z,0.90
2022-09-10T10:32:52.418Z,0.98
2022-09-10T10:38:15.069Z,1.40
2022-09-10T10:43:16.815Z,0.90
2022-09-10T10:48:32.363Z,1.33
2022-09-10T10:54:03.906Z,0.93
2022-09-10T10:59:16.124Z,1.00
2022-09-10T11:04:38.064Z,1.00
2022-09-10T11:09:48.926Z,0.90
2022-09-10T11:14:56.257Z,1.02
2022-09-10T11:20:29.376Z,1.00
2022-09-10T11:25:44.865Z,0.95
2022-09-10T11:30:53.244Z,0.90
2022-09-10T11:36:07.251Z,1.00
2022-09-10T11:41:42.156Z,1.00
2022-09-10T11:47:04.792Z,1.10
2022-09-10T11:52:08.671Z,0.70
2022-09-10T11:57:19.278Z,0.88
2022-09-10T12:02:30.197Z,0.77
2022-09-10T12:07:53.757Z,1.00
2022-09-10T12:12:55.508Z,1.00
2022-09-10T12:18:06.254Z,0.93
2022-09-10T12:23:17.431Z,0.90
2022-09-10T12:28:45.357Z,1.00
2022-09-10T12:33:46.933Z,0.98
2022-09-10T12:39:21.151Z,1.30
2022-09-10T12:44:44.395Z,0.90
2022-09-10T12:49:57.169Z,1.02
2022-09-10T12:55:14.913Z,1.08
2022-09-10T13:00:25.938Z,1.23
2022-09-10T13:05:36.809Z,1.33
2022-09-10T13:10:39.785Z,1.35
2022-09-10T13:15:51.857Z,1.42
2022-09-10T13:20:54.035Z,1.50
2022-09-10T13:26:38.340Z,1.17
2022-09-10T13:31:44.369Z,0.80
2022-09-10T13:37:23.049Z,1.10
2022-09-10T13:42:54.780Z,1.30
2022-09-10T13:48:19.039Z,1.10
2022-09-10T13:53:22.245Z,0.80
2022-09-10T13:58:28.537Z,0.90
2022-09-10T14:03:36.892Z,1.00
2022-09-10T14:08:49.431Z,0.80
2022-09-10T14:14:05.967Z,0.90
2022-09-10T14:19:18.747Z,1.05
2022-09-10T14:24:35.379Z,1.15
2022-09-10T14:29:37.137Z,0.90
2022-09-10T14:34:38.781Z,0.90
2022-09-10T14:39:44.427Z,0.90
2022-09-10T14:44:47.161Z,0.70
2022-09-10T14:49:49.124Z,0.70
2022-09-10T14:54:51.165Z,0.77
2022-09-10T14:59:57.177Z,0.95
2022-09-10T15:04:59.116Z,0.70
2022-09-10T15:10:01.573Z,1.10
2022-09-10T15:15:03.432Z,1.27
2022-09-10T15:20:05.481Z,1.17
2022-09-10T15:25:10.547Z,0.98
2022-09-10T15:30:12.660Z,1.00
2022-09-10T15:35:14.399Z,1.15
2022-09-10T15:40:16.962Z,1.00
2022-09-10T15:45:18.716Z,1.20
2022-09-10T15:50:20.500Z,1.50
2022-09-10T15:55:22.166Z,1.17
2022-09-10T16:00:24.129Z,1.17
2022-09-10T16:05:25.758Z,1.02
2022-09-10T16:10:27.469Z,1.00
2022-09-10T16:15:29.142Z,1.25
2022-09-10T16:20:31.187Z,1.33
2022-09-10T16:25:33.271Z,1.60
2022-09-10T16:30:35.565Z,1.80
2022-09-10T16:35:37.302Z,1.63
2022-09-10T16:40:38.992Z,1.83
2022-09-10T16:45:50.095Z,1.52
2022-09-10T16:50:51.789Z,1.38
2022-09-10T16:55:57.942Z,1.60
2022-09-10T17:00:59.627Z,1.70
2022-09-10T17:06:01.402Z,1.85
2022-09-10T17:11:03.156Z,1.70
2022-09-10T17:16:26.534Z,1.70
2022-09-10T17:21:31.413Z,2.45
2022-09-10T17:26:34.925Z,2.30
2022-09-10T17:31:36.731Z,3.22
2022-09-10T17:36:38.642Z,1.75
2022-09-10T17:41:41.211Z,1.80
2022-09-10T17:46:43.054Z,1.60
2022-09-10T17:51:45.105Z,1.30
2022-09-10T17:56:46.713Z,1.30
2022-09-10T18:01:48.372Z,1.50
2022-09-10T18:06:52.422Z,1.42
2022-09-10T18:11:56.469Z,1.48
2022-09-10T18:16:58.777Z,1.40
2022-09-10T18:22:01.393Z,1.60
2022-09-10T18:27:04.677Z,1.65
2022-09-10T18:32:07.340Z,1.92
2022-09-10T18:37:10.068Z,2.15
2022-09-10T18:42:12.745Z,2.33
2022-09-10T18:47:34.136Z,2.40
2022-09-10T18:52:36.025Z,3.35
2022-09-10T18:57:37.684Z,2.30
2022-09-10T19:02:39.846Z,2.20
2022-09-10T19:07:41.555Z,2.10
2022-09-10T19:12:43.218Z,1.98
2022-09-10T19:17:44.948Z,2.10
2022-09-10T19:22:46.716Z,2.80
2022-09-10T19:27:48.339Z,3.58
2022-09-10T19:32:50.072Z,3.80
2022-09-10T19:37:51.717Z,3.67
2022-09-10T19:42:54.391Z,3.47
2022-09-10T19:47:56.060Z,3.60
2022-09-10T19:52:57.718Z,3.60
2022-09-10T19:57:59.967Z,4.05
2022-09-10T20:03:02.035Z,4.10
2022-09-10T20:08:04.826Z,4.25
2022-09-10T20:13:08.235Z,4.57
2022-09-10T20:18:11.162Z,3.85
2022-09-10T20:23:12.802Z,4.30
2022-09-10T20:28:14.576Z,4.15
2022-09-10T20:33:18.744Z,3.78
2022-09-10T20:38:21.310Z,4.05
2022-09-10T20:43:23.077Z,4.05
2022-09-10T20:48:25.340Z,4.35
2022-09-10T20:53:27.938Z,3.90
2022-09-10T20:58:30.999Z,3.38
2022-09-10T21:03:32.918Z,3.50
2022-09-10T21:08:36.331Z,3.50
2022-09-10T21:13:46.495Z,2.95
2022-09-10T21:18:54.337Z,3.20
2022-09-10T21:24:01.698Z,3.70
2022-09-10T21:29:05.401Z,3.72
2022-09-10T21:34:07.677Z,3.28
2022-09-10T21:39:17.424Z,3.60
2022-09-10T21:44:21.998Z,3.63
2022-09-10T21:49:24.139Z,4.18
2022-09-10T21:54:26.362Z,3.63
2022-09-10T21:59:28.068Z,3.95
2022-09-10T22:04:29.775Z,4.30
2022-09-10T22:09:32.128Z,3.67
2022-09-10T22:14:33.880Z,4.25
2022-09-10T22:19:35.698Z,3.83
2022-09-10T22:24:37.326Z,3.75
2022-09-10T22:29:38.995Z,3.53
2022-09-10T22:34:40.664Z,3.67
2022-09-10T22:39:42.382Z,4.10
2022-09-10T22:44:44.036Z,3.63
2022-09-10T22:49:47.318Z,4.20
2022-09-10T22:54:48.949Z,4.22
2022-09-10T22:59:50.641Z,4.35
2022-09-10T23:04:52.267Z,4.05
2022-09-10T23:09:54.246Z,4.47
2022-09-10T23:14:55.941Z,4.85
2022-09-10T23:19:57.563Z,4.30
2022-09-10T23:24:59.201Z,4.68
2022-09-10T23:30:00.968Z,4.85
2022-09-10T23:35:02.592Z,5.20
2022-09-10T23:40:04.733Z,4.95
2022-09-10T23:45:07.283Z,5.18
2022-09-10T23:50:09.679Z,5.90
2022-09-10T23:55:11.304Z,5.13
